Time;durP1;ratioP1;P1;durP2;ratioP2;P2;SDS_P1;SDS_P2;PMS_P1;PMS_P2;Temp;Humidity;BMP_temperature;BMP_pressure;BME280_temperature;BME280_humidity;BME280_pressure;Samples;Min_cycle;Max_cycle;Signal;HPM_P1;HPM_P2
2022/10/01 00:00:50;;;;;;;10.60;6.60;;;11.00;99.90;;;;;;4971870;28;20057;-87
2022/10/01 00:03:17;;;;;;;10.15;7.18;;;11.00;99.90;;;;;;4971440;28;20046;-88
2022/10/01 00:05:43;;;;;;;17.13;7.95;;;10.10;99.90;;;;;;4988132;28;20161;-88
2022/10/01 00:08:10;;;;;;;14.82;7.82;;;10.90;99.90;;;;;;4972177;28;20038;-88
2022/10/01 00:10:40;;;;;;;14.35;7.75;;;10.90;99.90;;;;;;4971869;28;20054;-88
2022/10/01 00:13:06;;;;;;;11.50;7.97;;;10.90;99.90;;;;;;4972481;28;20038;-89
2022/10/01 00:15:33;;;;;;;10.68;7.18;;;10.90;99.90;;;;;;4972818;28;20533;-88
2022/10/01 00:17:58;;;;;;;10.23;7.55;;;10.90;99.90;;;;;;4971360;28;20569;-88
2022/10/01 00:20:34;;;;;;;10.45;8.20;;;10.90;99.90;;;;;;4967936;28;20050;-89
2022/10/01 00:22:59;;;;;;;12.45;8.27;;;10.80;99.90;;;;;;4953454;28;20062;-87
2022/10/01 00:25:29;;;;;;;14.35;8.52;;;10.80;99.90;;;;;;4968025;28;20050;-88
2022/10/01 00:28:04;;;;;;;10.63;8.27;;;10.80;99.90;;;;;;4952928;28;20109;-91
2022/10/01 00:30:30;;;;;;;11.82;8.50;;;10.80;99.90;;;;;;4952350;28;20054;-88
2022/10/01 00:32:56;;;;;;;11.38;8.32;;;10.80;99.90;;;;;;4969483;28;20050;-89
2022/10/01 00:35:22;;;;;;;12.45;9.23;;;10.80;99.90;;;;;;4952804;28;20133;-89
2022/10/01 00:37:49;;;;;;;12.23;9.32;;;10.80;99.90;;;;;;4953420;28;20177;-89
2022/10/01 00:40:18;;;;;;;14.93;8.85;;;10.70;99.90;;;;;;4952740;28;20578;-89
2022/10/01 00:42:44;;;;;;;12.57;9.80;;;10.80;99.90;;;;;;4953418;28;20201;-88
2022/10/01 00:45:23;;;;;;;14.23;9.95;;;10.70;99.90;;;;;;4951893;28;20112;-89
2022/10/01 00:48:03;;;;;;;12.55;9.70;;;10.70;99.90;;;;;;4952695;28;20105;-89
2022/10/01 00:50:48;;;;;;;;;;;;;;;;;;;;;
2022/10/01 00:53:15;;;;;;;12.70;9.25;;;10.70;99.90;;;;;;4967753;28;20059;-88
2022/10/01 00:55:54;;;;;;;17.70;10.73;;;10.70;99.90;;;;;;4952812;28;20137;-88
2022/10/01 00:58:22;;;;;;;12.48;10.10;;;10.70;99.90;;;;;;4968646;28;20566;-88
2022/10/01 01:00:49;;;;;;;15.35;9.93;;;10.60;99.90;;;;;;4967795;28;20065;-88
2022/10/01 01:03:22;;;;;;;15.27;9.93;;;10.70;99.90;;;;;;4953011;28;20444;-88
2022/10/01 01:05:51;;;;;;;13.65;9.65;;;10.40;99.90;;;;;;4950712;28;20054;-88
2022/10/01 01:08:17;;;;;;;13.50;11.38;;;10.70;99.90;;;;;;4952551;28;20133;-87
2022/10/01 01:10:58;;;;;;;13.50;10.07;;;10.70;99.90;;;;;;4967993;28;20082;-88
2022/10/01 01:13:34;;;;;;;12.02;9.82;;;10.70;99.90;;;;;;4969125;28;20043;-88
2022/10/01 01:16:14;;;;;;;13.18;10.73;;;10.80;99.90;;;;;;4956229;28;20113;-88
2022/10/01 01:18:53;;;;;;;11.63;9.85;;;10.70;99.90;;;;;;4972477;28;20152;-87
2022/10/01 01:21:30;;;;;;;14.05;9.80;;;10.70;99.90;;;;;;4971263;28;20102;-88
2022/10/01 01:24:19;;;;;;;14.63;9.90;;;10.60;99.90;;;;;;4956050;28;20051;-89
2022/10/01 01:27:01;;;;;;;13.25;9.38;;;10.70;99.90;;;;;;4955540;28;20053;-88
2022/10/01 01:29:44;;;;;;;15.30;9.77;;;10.70;99.90;;;;;;4956745;28;20065;-88
2022/10/01 01:32:24;;;;;;;11.60;9.82;;;10.70;99.90;;;;;;4955526;28;20051;-88
2022/10/01 01:34:53;;;;;;;12.65;8.77;;;10.60;99.90;;;;;;4954798;28;20046;-88
2022/10/01 01:37:23;;;;;;;11.88;8.82;;;10.70;99.90;;;;;;4955929;28;20513;-88
2022/10/01 01:39:58;;;;;;;13.75;9.63;;;10.60;99.90;;;;;;4956019;28;20098;-87
2022/10/01 01:42:30;;;;;;;15.63;8.73;;;10.70;99.90;;;;;;4954602;28;20510;-87
2022/10/01 01:44:59;;;;;;;14.85;10.52;;;10.60;99.90;;;;;;4964032;28;20058;-87
2022/10/01 01:47:31;;;;;;;13.73;9.38;;;10.60;99.90;;;;;;4975000;28;20057;-88
2022/10/01 01:50:00;;;;;;;11.10;8.63;;;10.70;99.90;;;;;;4973415;28;20109;-86
2022/10/01 01:52:26;;;;;;;13.48;9.32;;;10.60;99.90;;;;;;4975122;28;20062;-88
2022/10/01 01:54:53;;;;;;;13.32;9.38;;;10.60;99.90;;;;;;4973607;28;20502;-87
2022/10/01 01:57:20;;;;;;;14.73;10.20;;;10.60;99.90;;;;;;4974392;28;20550;-87
2022/10/01 01:59:46;;;;;;;11.75;8.85;;;10.60;99.90;;;;;;4974187;28;20070;-87
2022/10/01 02:02:18;;;;;;;16.25;9.85;;;10.60;99.90;;;;;;4973149;28;20046;-86
2022/10/01 02:04:48;;;;;;;12.70;9.00;;;10.60;99.90;;;;;;4990285;28;20046;-87
2022/10/01 02:07:26;;;;;;;14.55;8.93;;;10.20;99.90;;;;;;4974976;28;20100;-87
2022/10/01 02:10:36;;;;;;;9.75;7.75;;;10.60;99.90;;;;;;4973521;28;20085;-88
2022/10/01 02:13:27;;;;;;;;;;;;;;;;;;;;;
2022/10/01 02:16:23;;;;;;;12.52;9.00;;;10.60;99.90;;;;;;4989910;28;20462;-88
2022/10/01 02:19:12;;;;;;;11.38;8.48;;;10.70;99.90;;;;;;4990315;28;20057;-88
2022/10/01 02:21:55;;;;;;;13.00;8.90;;;10.60;99.90;;;;;;4974023;28;20053;-88
2022/10/01 02:24:32;;;;;;;15.45;9.00;;;10.60;99.90;;;;;;4972987;28;20050;-88
2022/10/01 02:27:02;;;;;;;14.18;8.18;;;10.50;99.90;;;;;;4990417;28;20054;-88
2022/10/01 02:29:32;;;;;;;11.85;7.82;;;10.60;99.90;;;;;;4974116;28;20053;-88
2022/10/01 02:32:11;;;;;;;10.93;7.32;;;10.60;99.90;;;;;;4989490;28;20554;-87
2022/10/01 02:34:39;;;;;;;11.93;8.35;;;11.00;99.90;;;;;;4973403;28;20038;-87
2022/10/01 02:37:08;;;;;;;10.88;7.03;;;10.60;99.90;;;;;;4973130;28;20494;-88
2022/10/01 02:39:36;;;;;;;11.75;7.10;;;10.70;99.90;;;;;;4973854;28;20081;-86
2022/10/01 02:42:04;;;;;;;13.45;7.63;;;10.60;99.90;;;;;;4990037;28;20120;-86
2022/10/01 02:44:36;;;;;;;9.60;7.45;;;10.60;99.90;;;;;;4973131;28;20054;-88
2022/10/01 02:47:08;;;;;;;10.95;7.30;;;10.60;99.90;;;;;;4973996;28;20043;-88
2022/10/01 02:49:41;;;;;;;13.38;7.43;;;10.50;99.90;;;;;;4974397;28;20132;-88
2022/10/01 02:52:26;;;;;;;12.93;8.30;;;10.20;99.90;;;;;;4989119;28;20133;-89
2022/10/01 02:55:12;;;;;;;9.73;7.45;;;10.60;99.90;;;;;;4973366;28;20062;-88
2022/10/01 02:57:47;;;;;;;11.00;6.57;;;10.60;99.90;;;;;;4974879;28;20487;-87
2022/10/01 03:00:20;;;;;;;10.63;6.78;;;10.60;99.90;;;;;;4972999;28;20081;-88
2022/10/01 03:02:52;;;;;;;8.50;6.20;;;10.60;99.90;;;;;;4973770;28;20470;-87
2022/10/01 03:05:19;;;;;;;11.67;6.77;;;10.60;99.90;;;;;;4972560;28;20082;-89
2022/10/01 03:07:45;;;;;;;9.45;6.18;;;10.60;99.90;;;;;;4974584;28;20216;-88
2022/10/01 03:10:23;;;;;;;8.10;5.97;;;10.60;99.90;;;;;;4974168;28;20780;-89
2022/10/01 03:12:58;;;;;;;9.35;6.32;;;10.60;99.90;;;;;;4973392;28;20478;-89
2022/10/01 03:15:34;;;;;;;9.02;5.97;;;10.60;99.90;;;;;;4974404;28;20134;-89
2022/10/01 03:18:17;;;;;;;8.30;5.72;;;10.70;99.90;;;;;;4974381;28;20450;-89
2022/10/01 03:20:47;;;;;;;9.40;5.82;;;10.70;99.90;;;;;;4973303;28;20100;-89
2022/10/01 03:23:26;;;;;;;7.90;5.90;;;10.70;99.90;;;;;;4970748;28;20398;-90
2022/10/01 03:25:58;;;;;;;11.02;5.72;;;10.70;99.90;;;;;;4954478;28;20054;-89
2022/10/01 03:28:26;;;;;;;8.45;6.35;;;10.70;99.90;;;;;;4970717;28;20053;-90
2022/10/01 03:30:52;;;;;;;8.80;5.80;;;10.70;99.90;;;;;;4970427;28;20053;-88
2022/10/01 03:33:23;;;;;;;8.82;5.50;;;10.70;99.90;;;;;;4970390;28;20038;-89
2022/10/01 03:36:00;;;;;;;7.88;5.18;;;10.80;99.90;;;;;;4953305;28;20035;-90
2022/10/01 03:38:26;;;;;;;9.27;4.90;;;10.80;99.90;;;;;;4954460;28;20047;-89
2022/10/01 03:40:54;;;;;;;6.55;5.28;;;10.90;99.90;;;;;;4954137;28;20070;-90
2022/10/01 03:43:20;;;;;;;7.70;5.35;;;10.80;99.90;;;;;;4954528;28;20054;-90
2022/10/01 03:45:47;;;;;;;7.47;5.22;;;10.90;99.90;;;;;;4970655;28;20043;-90
2022/10/01 03:48:25;;;;;;;6.45;4.28;;;10.80;99.90;;;;;;4954102;28;20050;-90
2022/10/01 03:51:00;;;;;;;6.45;4.57;;;10.80;99.90;;;;;;4953636;28;20503;-90
2022/10/01 03:53:27;;;;;;;5.07;3.92;;;10.80;99.90;;;;;;4969851;28;20090;-89
2022/10/01 03:56:00;;;;;;;5.18;3.78;;;10.60;99.90;;;;;;4970072;28;20047;-89
2022/10/01 03:58:39;;;;;;;5.72;3.47;;;10.80;99.90;;;;;;4954104;28;20086;-90
2022/10/01 04:01:05;;;;;;;4.57;3.25;;;11.00;99.90;;;;;;4954072;28;20538;-90
2022/10/01 04:03:39;;;;;;;4.53;2.85;;;10.90;99.90;;;;;;4953622;28;20138;-90
2022/10/01 04:09:07;;;;;;;4.53;3.08;;;11.10;99.90;;;;;;4978929;23;20167;-89
2022/10/01 04:11:33;;;;;;;5.70;2.80;;;11.10;99.90;;;;;;4938099;28;20051;-89
2022/10/01 04:13:58;;;;;;;3.90;2.33;;;11.00;99.90;;;;;;4934546;29;20053;-89
2022/10/01 04:16:34;;;;;;;4.10;2.58;;;11.10;99.90;;;;;;4934118;29;20460;-89
2022/10/01 04:19:03;;;;;;;3.45;2.40;;;11.10;99.90;;;;;;4950543;29;20051;-89
2022/10/01 04:21:32;;;;;;;5.18;2.45;;;11.00;99.90;;;;;;4917855;29;20055;-89
2022/10/01 04:24:48;;;;;;;3.92;2.63;;;11.00;99.90;;;;;;4933807;29;20488;-89
2022/10/01 04:26:50;;;;;;;5.47;2.50;;;11.00;99.90;;;;;;4923876;29;20414;-89
2022/10/01 04:29:16;;;;;;;4.60;2.50;;;11.00;99.90;;;;;;4950131;29;20051;-89
2022/10/01 04:31:44;;;;;;;3.60;2.42;;;11.10;99.90;;;;;;4949887;29;20126;-90
2022/10/01 04:34:16;;;;;;;5.35;2.67;;;11.00;99.90;;;;;;4934668;29;20105;-89
2022/10/01 04:36:50;;;;;;;5.30;2.33;;;10.90;99.90;;;;;;4932930;29;20087;-89
2022/10/01 04:39:21;;;;;;;4.68;2.47;;;10.90;99.90;;;;;;4950326;29;20589;-89
2022/10/01 04:41:47;;;;;;;3.95;2.25;;;10.90;99.90;;;;;;4934546;29;20055;-89
2022/10/01 04:44:13;;;;;;;3.50;2.40;;;11.00;99.90;;;;;;4949595;29;20043;-89
2022/10/01 04:47:00;;;;;;;4.38;2.58;;;11.10;99.90;;;;;;4950022;29;20058;-89
2022/10/01 04:49:30;;;;;;;6.07;3.03;;;11.00;99.90;;;;;;4933932;29;20155;-89
2022/10/01 04:52:07;;;;;;;4.40;2.75;;;11.10;99.90;;;;;;4948898;29;20051;-89
2022/10/01 04:54:33;;;;;;;5.68;2.88;;;11.20;99.90;;;;;;4934050;29;20079;-90
2022/10/01 04:57:01;;;;;;;6.07;2.63;;;11.10;99.90;;;;;;4950012;29;20089;-89
2022/10/01 04:59:41;;;;;;;4.35;2.63;;;11.20;99.90;;;;;;4949650;29;20381;-89
2022/10/01 05:02:07;;;;;;;3.78;2.63;;;11.10;99.90;;;;;;4947445;29;20492;-89
2022/10/01 05:04:43;;;;;;;5.22;3.17;;;11.10;99.90;;;;;;4918724;29;20138;-89
2022/10/01 05:07:13;;;;;;;5.03;2.90;;;11.40;99.90;;;;;;4917773;29;20048;-90
2022/10/01 05:09:39;;;;;;;6.47;2.88;;;11.10;99.90;;;;;;4918536;29;20101;-89
2022/10/01 05:12:06;;;;;;;4.30;2.80;;;11.10;99.90;;;;;;4917034;29;20075;-89
2022/10/01 05:14:33;;;;;;;4.47;3.03;;;11.30;99.90;;;;;;4918461;29;20051;-90
2022/10/01 05:16:58;;;;;;;3.90;2.60;;;11.30;99.90;;;;;;4918295;29;20403;-90
2022/10/01 05:19:30;;;;;;;5.10;3.20;;;11.20;99.90;;;;;;4917567;29;20035;-90
2022/10/01 05:22:04;;;;;;;8.40;2.90;;;11.30;99.90;;;;;;4916993;29;20049;-90
2022/10/01 05:25:00;;;;;;;;;;;;;;;;;;;;;
2022/10/01 05:27:39;;;;;;;5.75;3.25;;;11.40;99.90;;;;;;4933637;29;20047;-90
2022/10/01 05:30:24;;;;;;;4.13;2.80;;;11.20;99.90;;;;;;4918205;29;20106;-90
2022/10/01 05:33:14;;;;;;;5.25;3.58;;;11.40;99.90;;;;;;4917528;29;20054;-89
2022/10/01 05:35:40;;;;;;;5.25;3.60;;;11.30;99.90;;;;;;4932802;29;20050;-88
2022/10/01 05:38:09;;;;;;;4.82;3.45;;;11.40;99.90;;;;;;4927972;28;20046;-88
2022/10/01 05:40:35;;;;;;;10.35;4.10;;;11.40;99.90;;;;;;4936734;28;20047;-90
2022/10/01 05:43:03;;;;;;;6.53;4.38;;;11.30;99.90;;;;;;4937240;28;20049;-89
2022/10/01 05:45:31;;;;;;;6.18;4.20;;;11.40;99.90;;;;;;4952735;28;20070;-89
2022/10/01 05:48:03;;;;;;;6.97;4.57;;;11.40;99.90;;;;;;4936996;28;20157;-89
2022/10/01 05:50:30;;;;;;;9.18;5.43;;;11.50;99.90;;;;;;4936136;28;20365;-90
2022/10/01 05:53:11;;;;;;;;;;;;;;;;;;;;;
2022/10/01 05:55:39;;;;;;;5.90;4.63;;;11.50;99.90;;;;;;4952468;28;20058;-89
2022/10/01 05:58:11;;;;;;;7.18;4.80;;;11.40;99.90;;;;;;4936777;28;20137;-90
2022/10/01 06:00:41;;;;;;;8.32;4.95;;;11.50;99.90;;;;;;4954529;28;20051;-90
2022/10/01 06:03:07;;;;;;;6.68;4.90;;;11.60;99.90;;;;;;4939537;28;20052;-90
2022/10/01 06:05:46;;;;;;;8.23;5.03;;;11.50;99.90;;;;;;4939906;28;20057;-89
2022/10/01 06:08:25;;;;;;;8.80;5.30;;;11.50;99.90;;;;;;4925503;28;20055;-91
2022/10/01 06:11:09;;;;;;;7.72;5.05;;;11.50;99.90;;;;;;4936178;29;20486;-89
2022/10/01 06:13:39;;;;;;;10.32;5.43;;;11.70;99.90;;;;;;4930324;28;20043;-89
2022/10/01 06:16:16;;;;;;;8.25;4.88;;;11.70;99.90;;;;;;4939702;28;20047;-89
2022/10/01 06:19:05;;;;;;;6.47;4.82;;;11.30;99.90;;;;;;4939651;28;20550;-89
2022/10/01 06:21:43;;;;;;;10.88;5.13;;;11.60;99.90;;;;;;4956673;28;20528;-90
2022/10/01 06:24:27;;;;;;;10.57;5.68;;;11.80;99.90;;;;;;4939142;28;20050;-90
2022/10/01 06:27:01;;;;;;;;;;;11.80;99.90;;;;;;4940299;28;20047;-90
2022/10/01 06:29:39;;;;;;;8.77;5.60;;;11.90;99.90;;;;;;4939411;28;19922;-88
2022/10/01 06:32:06;;;;;;;10.80;5.82;;;11.90;99.90;;;;;;4939635;28;20066;-88
2022/10/01 06:34:37;;;;;;;15.40;5.95;;;11.90;99.90;;;;;;4939139;28;20398;-88
2022/10/01 06:37:13;;;;;;;7.85;5.82;;;11.80;99.90;;;;;;4938285;28;20043;-88
2022/10/01 06:39:39;;;;;;;8.00;6.10;;;11.80;99.90;;;;;;4939624;28;20073;-88
2022/10/01 06:42:04;;;;;;;11.30;6.43;;;11.90;99.90;;;;;;4939493;28;20413;-89
2022/10/01 06:44:30;;;;;;;10.82;6.30;;;11.70;99.90;;;;;;4938949;28;20052;-89
2022/10/01 06:46:56;;;;;;;12.77;6.82;;;11.80;99.90;;;;;;4939252;28;20061;-89
2022/10/01 06:49:22;;;;;;;16.40;7.22;;;11.70;99.90;;;;;;4939087;28;20070;-89
2022/10/01 06:54:45;;;;;;;15.40;7.22;;;11.80;99.90;;;;;;4973080;28;20069;-90
2022/10/01 06:57:11;;;;;;;18.63;8.27;;;11.90;99.90;;;;;;4938857;28;20117;-90
2022/10/01 06:59:39;;;;;;;16.20;7.43;;;11.80;99.90;;;;;;4939427;28;20506;-90
2022/10/01 07:02:26;;;;;;;16.40;8.32;;;11.90;99.90;;;;;;4929981;29;20043;-91
2022/10/01 07:05:01;;;;;;;15.65;8.73;;;11.90;99.90;;;;;;4900533;29;20050;-91
2022/10/01 07:07:53;;;;;;;20.27;7.95;;;12.00;99.90;;;;;;4907977;29;20055;-91
2022/10/01 07:10:24;;;;;;;18.42;8.60;;;12.10;99.90;;;;;;4935700;28;20062;-91
2022/10/01 07:12:52;;;;;;;17.50;8.85;;;12.10;99.90;;;;;;4919189;29;20047;-91
2022/10/01 07:15:27;;;;;;;16.48;9.00;;;12.20;99.90;;;;;;4919680;29;20047;-90
2022/10/01 07:18:07;;;;;;;16.73;8.73;;;12.20;99.90;;;;;;4920250;29;20043;-90
2022/10/01 07:20:42;;;;;;;16.50;8.25;;;12.20;99.90;;;;;;4919388;29;20054;-90
2022/10/01 07:23:15;;;;;;;20.73;8.52;;;12.30;99.90;;;;;;4919419;29;20102;-90
2022/10/01 07:25:44;;;;;;;23.52;8.02;;;12.40;99.90;;;;;;4920134;29;20043;-89
2022/10/01 07:28:18;;;;;;;21.13;7.95;;;12.50;99.90;;;;;;4920152;29;20050;-90
2022/10/01 07:31:02;;;;;;;17.75;7.20;;;12.50;99.90;;;;;;4919473;29;20045;-90
2022/10/01 07:33:31;;;;;;;15.98;7.47;;;12.50;99.90;;;;;;4919823;29;20425;-89
2022/10/01 07:36:07;;;;;;;13.75;7.07;;;12.50;99.90;;;;;;4919383;29;20043;-90
2022/10/01 07:38:46;;;;;;;17.48;6.82;;;12.50;99.90;;;;;;4930674;29;20078;-90
2022/10/01 07:41:16;;;;;;;15.65;7.30;;;12.50;99.90;;;;;;4936537;29;20101;-90
2022/10/01 07:43:45;;;;;;;16.58;7.00;;;12.50;99.90;;;;;;4921481;29;20039;-89
2022/10/01 07:46:21;;;;;;;15.65;6.80;;;12.50;99.90;;;;;;4935917;29;20043;-90
2022/10/01 07:48:58;;;;;;;24.33;7.28;;;12.30;99.90;;;;;;4928713;28;20043;-90
2022/10/01 07:51:27;;;;;;;21.55;7.60;;;12.50;99.90;;;;;;4933765;28;20491;-89
2022/10/01 07:53:57;;;;;;;15.55;6.00;;;12.80;99.90;;;;;;4938830;28;20129;-90
2022/10/01 07:56:24;;;;;;;15.18;5.40;;;12.90;99.90;;;;;;4938836;28;20113;-89
2022/10/01 07:58:55;;;;;;;16.40;5.50;;;12.90;99.90;;;;;;4939506;28;20078;-90
2022/10/01 08:01:21;;;;;;;14.65;4.03;;;13.00;99.90;;;;;;4938981;28;20039;-90
2022/10/01 08:03:48;;;;;;;18.75;3.92;;;13.30;99.90;;;;;;4939893;28;20058;-90
2022/10/01 08:06:28;;;;;;;15.15;3.80;;;13.30;99.90;;;;;;4938606;28;20047;-90
2022/10/01 08:08:58;;;;;;;15.00;3.97;;;13.40;99.90;;;;;;4924431;29;20066;-90
2022/10/01 08:11:24;;;;;;;14.35;3.70;;;13.50;99.90;;;;;;4920453;29;20452;-90
2022/10/01 08:13:50;;;;;;;17.33;3.35;;;13.70;99.90;;;;;;4920004;29;20051;-89
2022/10/01 08:16:16;;;;;;;15.60;3.10;;;13.70;99.90;;;;;;4919427;29;20510;-89
2022/10/01 08:19:04;;;;;;;14.27;3.28;;;13.80;99.90;;;;;;4914937;29;20444;-90
2022/10/01 08:21:30;;;;;;;14.52;2.50;;;13.90;99.90;;;;;;4900927;29;20047;-90
2022/10/01 08:23:56;;;;;;;17.08;3.33;;;13.90;99.90;;;;;;4899507;29;20054;-90
2022/10/01 08:26:21;;;;;;;12.27;2.95;;;14.10;99.90;;;;;;4902813;29;20491;-89
2022/10/01 08:28:50;;;;;;;17.92;2.72;;;14.20;99.90;;;;;;4934528;29;20043;-90
2022/10/01 08:31:16;;;;;;;12.95;2.15;;;14.30;99.90;;;;;;4919035;29;20055;-89
2022/10/01 08:33:44;;;;;;;14.43;2.65;;;14.40;99.90;;;;;;4919714;29;20051;-90
2022/10/01 08:36:10;;;;;;;18.88;2.30;;;14.50;99.90;;;;;;4918537;29;20047;-89
2022/10/01 08:38:39;;;;;;;13.10;2.42;;;14.60;99.90;;;;;;4919794;29;20109;-89
2022/10/01 08:41:38;;;;;;;13.48;2.00;;;14.60;99.90;;;;;;4919253;29;20047;-90
2022/10/01 08:44:18;;;;;;;16.95;2.42;;;14.70;99.90;;;;;;4920389;29;20055;-88
2022/10/01 08:46:48;;;;;;;14.25;2.33;;;14.70;99.90;;;;;;4919581;29;20051;-90
2022/10/01 08:49:32;;;;;;;19.20;2.22;;;14.80;99.90;;;;;;4920015;29;20086;-89
2022/10/01 08:52:09;;;;;;;15.32;1.88;;;15.10;99.90;;;;;;4919599;29;20058;-89
2022/10/01 08:54:45;;;;;;;13.75;1.98;;;15.20;99.90;;;;;;4920028;29;20126;-90
2022/10/01 08:57:14;;;;;;;17.23;2.72;;;15.20;99.90;;;;;;4919246;29;20051;-91
2022/10/01 08:59:46;;;;;;;17.77;2.67;;;15.30;99.90;;;;;;4920053;29;20098;-90
2022/10/01 09:02:19;;;;;;;21.70;2.85;;;15.50;99.90;;;;;;4912907;29;20056;-89
2022/10/01 09:05:28;;;;;;;13.13;2.03;;;15.60;99.90;;;;;;4916851;29;20047;-90
2022/10/01 09:08:22;;;;;;;14.82;1.65;;;15.80;99.90;;;;;;4922025;29;20062;-90
2022/10/01 09:10:51;;;;;;;;;;;16.00;99.90;;;;;;4919857;29;20141;-89
2022/10/01 09:13:54;;;;;;;14.45;2.38;;;16.00;99.90;;;;;;4920089;29;19929;-91
2022/10/01 09:16:30;;;;;;;16.73;2.17;;;16.10;99.90;;;;;;4919787;29;20055;-90
2022/10/01 09:19:14;;;;;;;17.10;2.72;;;16.10;99.90;;;;;;4919824;29;20054;-90
2022/10/01 09:22:02;;;;;;;16.85;2.63;;;16.20;99.90;;;;;;4919112;29;20044;-92
2022/10/01 09:24:52;;;;;;;;;;;;;;;;;;;;;
2022/10/01 09:27:41;;;;;;;10.43;1.65;;;16.30;99.90;;;;;;4935605;29;20483;-91
2022/10/01 09:39:37;;;;;;;14.68;2.38;;;16.20;99.90;;;;;;4970351;28;20069;-84
2022/10/01 09:42:29;;;;;;;20.88;2.80;;;16.20;99.90;;;;;;4956041;28;20853;-87
2022/10/01 09:45:00;;;;;;;20.75;2.60;;;16.10;99.90;;;;;;4954750;28;20083;-91
2022/10/01 09:47:25;;;;;;;12.52;1.95;;;16.10;99.90;;;;;;4938649;28;20457;-84
2022/10/01 09:49:59;;;;;;;15.73;2.03;;;16.10;99.90;;;;;;4953998;28;20501;-84
2022/10/01 09:52:37;;;;;;;15.98;2.10;;;16.20;99.90;;;;;;4955295;28;20082;-86
2022/10/01 09:55:35;;;;;;;12.50;1.73;;;16.30;99.90;;;;;;4936000;29;20051;-84
2022/10/01 09:58:07;;;;;;;11.15;1.70;;;16.30;99.90;;;;;;4936021;29;20047;-85
2022/10/01 10:00:37;;;;;;;14.90;2.47;;;16.30;99.90;;;;;;4951266;29;20047;-84
2022/10/01 10:03:09;;;;;;;12.98;2.08;;;16.20;99.90;;;;;;4935986;29;20051;-83
2022/10/01 10:06:58;;;;;;;;;;;;;;;;;;;;;
2022/10/01 10:13:40;;;;;;;;;;;;;;;;;;;;;
2022/10/01 10:16:54;;;;;;;7.50;1.23;;;14.90;99.90;;;;;;4955420;29;20047;-92
2022/10/01 10:29:22;;;;;;;13.65;1.92;;;14.10;99.90;;;;;;4996031;22;20063;-87
2022/10/01 10:31:57;;;;;;;11.07;1.52;;;13.90;99.90;;;;;;4966592;28;20059;-89
2022/10/01 10:34:32;;;;;;;9.60;1.83;;;13.70;99.90;;;;;;4956391;28;20189;-87
2022/10/01 10:37:36;;;;;;;10.15;1.35;;;13.50;99.90;;;;;;4955672;28;20241;-85
2022/10/01 10:40:07;;;;;;;12.77;1.50;;;14.00;99.90;;;;;;4954855;28;20145;-86
2022/10/01 10:42:37;;;;;;;16.48;2.10;;;13.30;99.90;;;;;;4970840;28;20476;-86
2022/10/01 10:45:32;;;;;;;10.45;1.42;;;13.20;99.90;;;;;;4965422;28;20478;-86
2022/10/01 10:48:00;;;;;;;12.85;1.58;;;13.20;99.90;;;;;;4971533;28;20507;-87
2022/10/01 10:50:36;;;;;;;6.97;1.05;;;13.10;99.90;;;;;;4954117;28;20554;-89
2022/10/01 10:53:26;;;;;;;7.72;1.08;;;13.10;99.90;;;;;;4955994;28;20047;-89
2022/10/01 10:55:59;;;;;;;10.45;0.98;;;13.10;99.90;;;;;;4956607;28;20050;-90
2022/10/01 10:58:32;;;;;;;6.35;1.02;;;13.10;99.90;;;;;;4956835;28;20076;-90
2022/10/01 11:01:04;;;;;;;6.60;0.73;;;13.10;99.90;;;;;;4956710;28;20046;-89
2022/10/01 11:03:32;;;;;;;6.50;1.05;;;13.20;99.90;;;;;;4973663;28;20093;-91
2022/10/01 11:06:07;;;;;;;4.68;0.82;;;13.30;99.90;;;;;;4975387;28;20094;-91
2022/10/01 11:08:34;;;;;;;6.50;1.10;;;13.40;99.90;;;;;;4976663;28;20116;-89
2022/10/01 11:11:46;;;;;;;6.18;1.15;;;13.60;99.90;;;;;;4975452;28;20158;-89
2022/10/01 11:14:48;;;;;;;5.50;1.00;;;13.80;99.90;;;;;;4975904;28;20042;-87
2022/10/01 11:17:43;;;;;;;5.95;1.10;;;14.00;99.90;;;;;;4971275;28;20055;-88
2022/10/01 11:20:36;;;;;;;9.30;1.13;;;13.90;99.90;;;;;;4975380;28;20054;-90
2022/10/01 11:23:14;;;;;;;7.38;0.90;;;13.90;99.90;;;;;;4975637;28;20104;-90
2022/10/01 11:26:23;;;;;;;9.43;1.15;;;14.20;99.90;;;;;;4975741;28;20046;-91
2022/10/01 11:29:19;;;;;;;5.00;1.00;;;14.10;99.90;;;;;;4975425;28;20086;-92
2022/10/01 11:31:51;;;;;;;10.82;1.17;;;14.20;99.90;;;;;;4959711;28;20786;-92
2022/10/01 11:34:43;;;;;;;6.95;1.00;;;14.30;99.90;;;;;;4959803;28;20038;-93
2022/10/01 11:37:24;;;;;;;6.68;1.20;;;14.40;99.90;;;;;;4975833;28;20038;-93
2022/10/01 11:40:27;;;;;;;8.60;1.20;;;14.20;99.90;;;;;;4976127;28;20104;-93
2022/10/01 11:47:18;;;;;;;7.72;1.30;;;14.70;99.90;;;;;;4933208;29;20090;-93
2022/10/01 11:50:32;;;;;;;4.93;1.10;;;14.70;99.90;;;;;;4908728;29;20078;-93
2022/10/01 13:41:04;;;;;;;10.43;1.67;;;14.30;99.90;;;;;;4986188;28;20055;-92
2022/10/01 13:43:37;;;;;;;7.50;1.05;;;14.20;99.90;;;;;;4961553;28;20042;-90
2022/10/01 13:46:23;;;;;;;;;;;;;;;;;;;;;
2022/10/01 13:49:27;;;;;;;4.65;0.80;;;14.20;99.90;;;;;;4993699;28;20046;-93
2022/10/01 13:52:02;;;;;;;4.72;1.08;;;14.00;99.90;;;;;;4960119;28;20406;-94
2022/10/01 13:55:47;;;;;;;;;;;;;;;;;;;;;
2022/10/01 13:58:06;;;;;;;7.47;1.00;;;14.00;99.90;;;;;;4985480;28;20094;-90
2022/10/01 14:00:34;;;;;;;8.18;1.33;;;13.90;99.90;;;;;;4960841;28;20080;-89
2022/10/01 14:04:18;;;;;;;6.82;0.93;;;13.90;99.90;;;;;;4961115;28;20521;-91
2022/10/01 14:06:51;;;;;;;12.02;1.38;;;13.80;99.90;;;;;;4969678;28;20475;-93
2022/10/01 14:09:19;;;;;;;9.63;1.30;;;13.70;99.90;;;;;;4942236;28;20047;-93
2022/10/01 14:18:02;;;;;;;7.97;1.38;;;13.50;99.90;;;;;;4957817;28;20043;-94
2022/10/01 14:21:10;;;;;;;5.60;0.90;;;13.50;99.90;;;;;;4956245;28;20051;-94
2022/10/01 14:31:01;;;;;;;8.05;1.15;;;13.80;99.90;;;;;;4986422;28;20042;-95
2022/10/01 14:34:41;;;;;;;7.93;1.27;;;13.90;99.90;;;;;;4979238;28;20129;-95
2022/10/01 14:37:10;;;;;;;7.43;1.25;;;14.10;99.90;;;;;;4960438;28;20105;-95
2022/10/01 14:39:36;;;;;;;7.28;1.10;;;13.90;99.90;;;;;;4960789;28;20038;-91
2022/10/01 14:42:09;;;;;;;9.07;1.27;;;13.90;99.90;;;;;;4959978;28;20150;-89
2022/10/01 14:44:40;;;;;;;8.13;1.10;;;13.90;99.90;;;;;;4960729;28;20082;-88
2022/10/01 14:47:34;;;;;;;10.68;1.33;;;13.90;99.90;;;;;;4960104;28;20053;-88
2022/10/01 14:50:10;;;;;;;9.52;1.50;;;14.00;99.90;;;;;;4959367;28;20060;-89
2022/10/01 14:52:43;;;;;;;10.93;1.50;;;14.00;99.90;;;;;;4960510;28;20081;-90
2022/10/01 14:55:13;;;;;;;13.90;1.55;;;14.00;99.90;;;;;;4959872;28;20050;-91
2022/10/01 14:57:42;;;;;;;14.23;2.15;;;14.00;99.90;;;;;;4960354;28;20061;-93
2022/10/01 15:00:20;;;;;;;10.65;1.40;;;14.10;99.90;;;;;;4960005;28;20050;-92
2022/10/01 15:02:50;;;;;;;15.18;1.80;;;14.30;99.90;;;;;;4960009;28;20038;-93
2022/10/01 15:05:26;;;;;;;14.23;1.70;;;14.40;99.90;;;;;;4960216;28;20046;-92
2022/10/01 15:07:52;;;;;;;13.20;1.75;;;14.50;99.90;;;;;;4960071;28;20046;-93
2022/10/01 15:10:30;;;;;;;;;;;;;;;;;;;;;
2022/10/01 15:13:06;;;;;;;9.77;1.63;;;14.70;99.90;;;;;;4975809;28;20055;-93
2022/10/01 15:15:42;;;;;;;10.50;1.65;;;14.70;99.90;;;;;;4960488;28;20045;-93
2022/10/01 15:18:17;;;;;;;8.35;1.30;;;14.80;99.90;;;;;;4976253;28;20042;-94
2022/10/01 15:21:04;;;;;;;10.48;1.58;;;14.70;99.90;;;;;;4959584;28;20047;-94
2022/10/01 15:23:32;;;;;;;10.00;1.73;;;14.80;99.90;;;;;;4960259;28;20046;-94
2022/10/01 15:26:04;;;;;;;14.93;1.58;;;14.80;99.90;;;;;;4959923;28;20046;-95
2022/10/01 15:28:33;;;;;;;14.82;1.95;;;14.90;99.90;;;;;;4951475;28;20510;-95
2022/10/01 15:31:04;;;;;;;11.48;1.73;;;14.90;99.90;;;;;;4940592;28;20098;-95
2022/10/01 15:33:42;;;;;;;16.48;2.95;;;14.90;99.90;;;;;;4940383;28;20043;-94
2022/10/01 15:36:37;;;;;;;13.00;2.17;;;14.80;99.90;;;;;;4938778;28;20074;-93
2022/10/01 15:39:36;;;;;;;14.50;2.40;;;14.70;99.90;;;;;;4939507;28;20468;-94
2022/10/01 15:42:08;;;;;;;18.35;3.25;;;14.70;99.90;;;;;;4955381;28;20043;-95
2022/10/01 15:44:45;;;;;;;30.55;3.05;;;14.60;99.90;;;;;;4956477;28;20058;-95
2022/10/01 15:47:50;;;;;;;15.05;2.83;;;14.80;99.90;;;;;;4940559;28;20074;-95
2022/10/01 15:51:08;;;;;;;14.85;2.42;;;14.60;99.90;;;;;;4926560;28;20050;-96
2022/10/01 15:54:08;;;;;;;17.92;2.75;;;14.80;99.90;;;;;;4894366;29;20105;-94
2022/10/01 16:00:36;;;;;;;20.23;3.75;;;15.00;99.90;;;;;;4879398;29;20047;-94
2022/10/01 16:03:03;;;;;;;20.80;2.65;;;14.90;99.90;;;;;;4935596;29;20042;-95
2022/10/01 16:05:53;;;;;;;19.50;2.78;;;14.90;99.90;;;;;;4934808;29;20046;-96
2022/10/01 16:22:21;;;;;;;24.27;2.90;;;14.60;99.90;;;;;;5287443;23;20066;-96
2022/10/01 16:25:00;;;;;;;20.63;3.10;;;14.60;99.90;;;;;;4957508;28;20138;-95
2022/10/01 16:27:49;;;;;;;11.73;2.65;;;14.50;99.90;;;;;;4969409;28;20294;-95
2022/10/01 16:30:25;;;;;;;14.43;2.83;;;14.50;99.90;;;;;;4939265;28;20043;-94
2022/10/01 16:33:04;;;;;;;23.17;3.30;;;14.30;99.90;;;;;;4938480;28;20086;-94